createdAt,value
2017-09-05T00:00:15.874Z,0
2017-09-05T00:00:41.981Z,0
2017-09-05T00:01:08.169Z,0
2017-09-05T00:01:34.284Z,0
2017-09-05T00:02:01.003Z,0
2017-09-05T00:02:27.127Z,0
2017-09-05T00:02:53.241Z,0
2017-09-05T00:03:19.367Z,0
2017-09-05T00:03:45.474Z,0
2017-09-05T00:04:11.584Z,0
2017-09-05T00:04:37.689Z,0
2017-09-05T00:05:03.805Z,0
2017-09-05T00:05:29.908Z,0
2017-09-05T00:05:56.018Z,0
2017-09-05T00:06:22.133Z,0
2017-09-05T00:06:48.298Z,0
2017-09-05T00:07:14.429Z,0
2017-09-05T00:07:40.532Z,0
2017-09-05T00:08:06.644Z,0
2017-09-05T00:08:32.757Z,0
2017-09-05T00:08:58.862Z,0
2017-09-05T00:09:24.979Z,0
2017-09-05T00:09:51.125Z,0
2017-09-05T00:10:17.237Z,0
2017-09-05T00:10:43.371Z,0
2017-09-05T00:11:09.487Z,0
2017-09-05T00:11:35.603Z,0
2017-09-05T00:12:01.711Z,0
2017-09-05T00:12:27.816Z,0
2017-09-05T00:12:53.921Z,0
2017-09-05T00:13:20.029Z,0
2017-09-05T00:13:46.136Z,0
2017-09-05T00:14:12.252Z,0
2017-09-05T00:14:38.361Z,0
2017-09-05T00:15:04.471Z,0
2017-09-05T00:15:30.578Z,0
2017-09-05T00:15:56.716Z,0
2017-09-05T00:16:22.820Z,0
2017-09-05T00:16:48.931Z,0
2017-09-05T00:17:15.044Z,0
2017-09-05T00:17:41.155Z,0
2017-09-05T00:18:07.260Z,0
2017-09-05T00:18:33.366Z,0
2017-09-05T00:18:59.481Z,0
2017-09-05T00:19:25.587Z,0
2017-09-05T00:19:51.702Z,0
2017-09-05T00:20:17.832Z,0
2017-09-05T00:20:43.929Z,0
2017-09-05T00:21:10.060Z,0
2017-09-05T00:21:36.164Z,0
2017-09-05T00:22:02.271Z,0
2017-09-05T00:22:28.378Z,0
2017-09-05T00:22:54.486Z,0
2017-09-05T00:23:20.606Z,0
2017-09-05T00:23:46.715Z,0
2017-09-05T00:24:12.817Z,0
2017-09-05T00:24:38.926Z,0
2017-09-05T00:25:05.031Z,0
2017-09-05T00:25:31.154Z,0
2017-09-05T00:25:57.270Z,0
2017-09-05T00:26:23.400Z,0
2017-09-05T00:26:49.511Z,0
2017-09-05T00:27:15.643Z,0
2017-09-05T00:27:41.746Z,0
2017-09-05T00:28:07.863Z,0
2017-09-05T00:28:33.969Z,0
2017-09-05T00:29:00.078Z,0
2017-09-05T00:29:26.275Z,0
2017-09-05T00:29:52.382Z,0
2017-09-05T00:30:18.493Z,0
2017-09-05T00:30:44.596Z,0
2017-09-05T00:31:10.705Z,0
2017-09-05T00:31:36.810Z,0
2017-09-05T00:32:02.929Z,0
2017-09-05T00:32:29.031Z,0
2017-09-05T00:32:55.136Z,0
2017-09-05T00:33:21.247Z,0
2017-09-05T00:33:47.391Z,0
2017-09-05T00:34:13.496Z,0
2017-09-05T00:34:39.611Z,0
2017-09-05T00:35:05.719Z,0
2017-09-05T00:35:31.870Z,0
2017-09-05T00:35:57.973Z,0
2017-09-05T00:36:24.080Z,0
2017-09-05T00:36:50.194Z,0
2017-09-05T00:37:16.299Z,0
2017-09-05T00:37:42.417Z,0
2017-09-05T00:38:08.539Z,0
2017-09-05T00:38:34.650Z,0
2017-09-05T00:39:00.758Z,0
2017-09-05T00:39:26.875Z,0
2017-09-05T00:39:52.983Z,0
2017-09-05T00:40:19.088Z,0
2017-09-05T00:40:45.223Z,0
2017-09-05T00:41:11.354Z,0
2017-09-05T00:41:37.468Z,0
2017-09-05T00:42:03.571Z,0
2017-09-05T00:42:29.701Z,0
2017-09-05T00:42:55.806Z,0
2017-09-05T00:43:21.920Z,0
2017-09-05T00:43:48.030Z,0
2017-09-05T00:44:14.197Z,0
2017-09-05T00:44:40.301Z,0
2017-09-05T00:45:06.413Z,0
2017-09-05T00:45:32.518Z,0
2017-09-05T00:45:58.623Z,0
2017-09-05T00:46:24.744Z,0
2017-09-05T00:46:50.849Z,0
2017-09-05T00:47:16.977Z,0
2017-09-05T00:47:43.086Z,0
2017-09-05T00:48:09.199Z,0
2017-09-05T00:48:35.309Z,0
2017-09-05T00:49:01.418Z,0
2017-09-05T00:49:27.546Z,0
2017-09-05T00:49:53.654Z,0
2017-09-05T00:50:19.786Z,0
2017-09-05T00:50:45.897Z,0
2017-09-05T00:51:12.031Z,0
2017-09-05T00:51:38.143Z,0
2017-09-05T00:52:04.252Z,0
2017-09-05T00:52:30.372Z,0
2017-09-05T00:52:56.515Z,0
2017-09-05T00:53:22.656Z,0
2017-09-05T00:53:48.765Z,0
2017-09-05T00:54:14.870Z,0
2017-09-05T00:54:40.977Z,0
2017-09-05T00:55:07.096Z,0
2017-09-05T00:55:33.208Z,0
2017-09-05T00:55:59.312Z,0
2017-09-05T00:56:25.426Z,0
2017-09-05T00:56:51.533Z,0
2017-09-05T00:57:17.637Z,0
2017-09-05T00:57:43.749Z,0
2017-09-05T00:58:09.854Z,0
2017-09-05T00:58:36.035Z,0
2017-09-05T00:59:03.653Z,0
2017-09-05T00:59:29.796Z,0
2017-09-05T00:59:55.923Z,0
2017-09-05T01:00:22.063Z,0
2017-09-05T01:00:48.202Z,0
2017-09-05T01:01:14.332Z,0
2017-09-05T01:01:40.484Z,0
2017-09-05T01:02:06.614Z,0
2017-09-05T01:02:32.750Z,0
2017-09-05T01:02:58.881Z,0
2017-09-05T01:03:25.085Z,0
2017-09-05T01:03:51.304Z,0
2017-09-05T01:04:17.438Z,0
2017-09-05T01:04:43.580Z,0
2017-09-05T01:05:09.705Z,0
2017-09-05T01:05:35.844Z,0
2017-09-05T01:06:01.970Z,0
2017-09-05T01:06:28.111Z,0
2017-09-05T01:06:54.249Z,0
2017-09-05T01:07:20.377Z,0
2017-09-05T01:07:46.516Z,0
2017-09-05T01:08:12.646Z,0
2017-09-05T01:08:38.776Z,0
2017-09-05T01:09:04.911Z,0
2017-09-05T01:09:31.037Z,0
2017-09-05T01:09:57.267Z,0
2017-09-05T01:10:23.377Z,0
2017-09-05T01:10:49.506Z,0
2017-09-05T01:11:15.684Z,0
2017-09-05T01:11:41.850Z,0
2017-09-05T01:12:07.983Z,0
2017-09-05T01:12:34.114Z,0
2017-09-05T01:13:00.326Z,0
2017-09-05T01:13:26.453Z,0
2017-09-05T01:13:52.595Z,0
2017-09-05T01:14:18.723Z,0
2017-09-05T01:14:44.859Z,0
2017-09-05T01:15:10.987Z,0
2017-09-05T01:15:37.120Z,0
2017-09-05T01:16:03.252Z,0
2017-09-05T01:16:29.386Z,0
2017-09-05T01:16:55.517Z,0
2017-09-05T01:17:21.645Z,0
2017-09-05T01:17:47.785Z,0
2017-09-05T01:18:13.916Z,0
2017-09-05T01:18:40.047Z,0
2017-09-05T01:19:06.219Z,0
2017-09-05T01:19:32.359Z,0
2017-09-05T01:19:58.484Z,0
2017-09-05T01:20:24.650Z,0
2017-09-05T01:20:50.833Z,0
2017-09-05T01:21:17.011Z,0
2017-09-05T01:21:43.142Z,0
2017-09-05T01:22:09.277Z,0
2017-09-05T01:22:35.403Z,0
2017-09-05T01:23:01.538Z,0
2017-09-05T01:23:27.672Z,0
2017-09-05T01:23:53.806Z,0
2017-09-05T01:24:19.944Z,0
2017-09-05T01:24:46.069Z,0
2017-09-05T01:25:12.244Z,0
2017-09-05T01:25:38.379Z,0
2017-09-05T01:26:04.508Z,0
2017-09-05T01:26:30.648Z,0
2017-09-05T01:26:56.818Z,0
2017-09-05T01:27:23.006Z,0
2017-09-05T01:27:49.142Z,0
2017-09-05T01:28:15.325Z,0
2017-09-05T01:28:41.428Z,0
2017-09-05T01:29:07.564Z,0
2017-09-05T01:29:33.701Z,0
2017-09-05T01:29:59.828Z,0
2017-09-05T01:30:25.961Z,0
2017-09-05T01:30:52.127Z,0
2017-09-05T01:31:18.266Z,0
2017-09-05T01:31:44.392Z,0
2017-09-05T01:32:10.607Z,0
2017-09-05T01:32:36.729Z,0
2017-09-05T01:33:02.868Z,0
2017-09-05T01:33:28.994Z,0
2017-09-05T01:33:55.126Z,0
2017-09-05T01:34:21.265Z,0
2017-09-05T01:34:47.395Z,0
2017-09-05T01:35:13.528Z,0
2017-09-05T01:35:39.667Z,0
2017-09-05T01:36:05.794Z,0
2017-09-05T01:36:31.928Z,0
2017-09-05T01:36:58.055Z,0
2017-09-05T01:37:24.186Z,0
2017-09-05T01:37:50.317Z,0
2017-09-05T01:38:16.476Z,0
2017-09-05T01:38:42.578Z,0
2017-09-05T01:39:08.706Z,0
2017-09-05T01:39:34.844Z,0
2017-09-05T01:40:00.972Z,0
2017-09-05T01:40:27.110Z,0
2017-09-05T01:40:53.242Z,0
2017-09-05T01:41:19.370Z,0
2017-09-05T01:41:45.499Z,0
2017-09-05T01:42:11.639Z,0
2017-09-05T01:42:37.773Z,0
2017-09-05T01:43:03.910Z,0
2017-09-05T01:43:30.048Z,0
2017-09-05T01:43:56.174Z,0
2017-09-05T01:44:22.315Z,0
2017-09-05T01:44:48.446Z,0
2017-09-05T01:45:14.573Z,0
2017-09-05T01:45:40.698Z,0
2017-09-05T01:46:06.836Z,0
2017-09-05T01:46:32.962Z,0
2017-09-05T01:46:59.098Z,0
2017-09-05T01:47:25.246Z,0
2017-09-05T01:47:51.387Z,0
2017-09-05T01:48:17.516Z,0
2017-09-05T01:48:43.652Z,0
2017-09-05T01:49:09.779Z,0
2017-09-05T01:49:35.915Z,0
2017-09-05T01:50:02.046Z,0
2017-09-05T01:50:28.184Z,0
2017-09-05T01:50:54.327Z,0
2017-09-05T01:51:20.458Z,0
2017-09-05T01:51:46.594Z,0
2017-09-05T01:52:12.727Z,0
2017-09-05T01:52:38.868Z,0
2017-09-05T01:53:04.994Z,0
2017-09-05T01:53:31.133Z,0
2017-09-05T01:53:57.261Z,0
2017-09-05T01:54:23.398Z,0
2017-09-05T01:54:49.534Z,0
2017-09-05T01:55:15.662Z,0
2017-09-05T01:55:41.795Z,0
2017-09-05T01:56:07.927Z,0
2017-09-05T01:56:34.061Z,0
2017-09-05T01:57:00.196Z,0
2017-09-05T01:57:26.329Z,0
2017-09-05T01:57:52.481Z,0
2017-09-05T01:58:18.614Z,0
2017-09-05T01:58:44.751Z,0
2017-09-05T01:59:10.881Z,0
2017-09-05T01:59:37.012Z,0
2017-09-05T02:00:03.138Z,0
2017-09-05T02:00:29.277Z,0
2017-09-05T02:00:55.412Z,0
2017-09-05T02:01:21.546Z,0
2017-09-05T02:01:47.673Z,0
2017-09-05T02:02:13.813Z,0
2017-09-05T02:02:39.942Z,0
2017-09-05T02:03:06.074Z,0
2017-09-05T02:03:32.198Z,0
2017-09-05T02:03:58.339Z,0
2017-09-05T02:04:24.474Z,0
2017-09-05T02:04:50.599Z,0
2017-09-05T02:05:16.725Z,0
2017-09-05T02:05:42.880Z,0
2017-09-05T02:06:09.011Z,0
2017-09-05T02:06:35.150Z,0
2017-09-05T02:07:01.285Z,0
2017-09-05T02:07:27.421Z,0
2017-09-05T02:07:53.549Z,0
2017-09-05T02:08:19.682Z,0
2017-09-05T02:08:45.811Z,0
2017-09-05T02:09:11.945Z,0
2017-09-05T02:09:38.082Z,0
2017-09-05T02:10:04.204Z,0
2017-09-05T02:10:30.341Z,0
2017-09-05T02:10:56.460Z,0
2017-09-05T02:11:22.599Z,0
2017-09-05T02:11:48.726Z,0
2017-09-05T02:12:14.856Z,0
2017-09-05T02:12:40.995Z,0
2017-09-05T02:13:07.133Z,0
2017-09-05T02:13:33.259Z,0
2017-09-05T02:13:59.386Z,0
2017-09-05T02:14:25.521Z,0
2017-09-05T02:14:51.655Z,0
2017-09-05T02:15:17.800Z,0
2017-09-05T02:15:43.935Z,0
2017-09-05T02:16:10.065Z,0
2017-09-05T02:16:36.194Z,0
2017-09-05T02:17:02.326Z,0
2017-09-05T02:17:28.460Z,0
2017-09-05T02:17:54.596Z,0
2017-09-05T02:18:20.723Z,0
2017-09-05T02:18:46.863Z,0
2017-09-05T02:19:12.992Z,0
2017-09-05T02:19:39.125Z,0
2017-09-05T02:20:05.261Z,0
2017-09-05T02:20:31.390Z,0
2017-09-05T02:20:57.523Z,0
2017-09-05T02:21:23.662Z,0
2017-09-05T02:21:49.795Z,0
2017-09-05T02:22:15.925Z,0
2017-09-05T02:22:42.062Z,0
2017-09-05T02:23:08.196Z,0
2017-09-05T02:23:34.329Z,0
2017-09-05T02:24:00.462Z,0
2017-09-05T02:24:26.597Z,0
2017-09-05T02:24:52.721Z,0
2017-09-05T02:25:18.860Z,0
2017-09-05T02:25:44.986Z,0
2017-09-05T02:26:11.125Z,0
2017-09-05T02:26:37.260Z,0
2017-09-05T02:27:03.412Z,0
2017-09-05T02:27:29.541Z,0
2017-09-05T02:27:55.678Z,0
2017-09-05T02:28:21.808Z,0
2017-09-05T02:28:47.961Z,0
2017-09-05T02:29:14.089Z,0
2017-09-05T02:29:40.228Z,0
2017-09-05T02:30:06.349Z,0
2017-09-05T02:30:32.486Z,0
2017-09-05T02:30:58.615Z,0
2017-09-05T02:31:24.745Z,0
2017-09-05T02:31:50.886Z,0
2017-09-05T02:32:17.019Z,0
2017-09-05T02:32:43.149Z,0
2017-09-05T02:33:09.284Z,0
2017-09-05T02:33:35.413Z,0
2017-09-05T02:34:01.545Z,0
2017-09-05T02:34:27.687Z,0
2017-09-05T02:34:53.825Z,0
2017-09-05T02:35:19.951Z,0
2017-09-05T02:35:46.085Z,0
2017-09-05T02:36:12.262Z,0
2017-09-05T02:36:38.391Z,0
2017-09-05T02:37:04.550Z,0
2017-09-05T02:37:30.679Z,0
2017-09-05T02:37:56.813Z,0
2017-09-05T02:38:22.952Z,0
2017-09-05T02:38:49.080Z,0
2017-09-05T02:39:15.210Z,0
2017-09-05T02:39:41.352Z,0
2017-09-05T02:40:07.485Z,0
2017-09-05T02:40:33.610Z,0
2017-09-05T02:40:59.746Z,0
2017-09-05T02:41:25.877Z,0
2017-09-05T02:41:52.006Z,0
2017-09-05T02:42:18.144Z,0
2017-09-05T02:42:44.278Z,0
2017-09-05T02:43:10.410Z,0
2017-09-05T02:43:36.538Z,0
2017-09-05T02:44:02.678Z,0
2017-09-05T02:44:28.810Z,0
2017-09-05T02:44:54.944Z,0
2017-09-05T02:45:21.070Z,0
2017-09-05T02:45:47.209Z,0
2017-09-05T02:46:13.348Z,0
2017-09-05T02:46:39.479Z,0
2017-09-05T02:47:05.611Z,0
2017-09-05T02:47:31.749Z,0
2017-09-05T02:47:57.876Z,0
2017-09-05T02:48:24.006Z,0
2017-09-05T02:48:50.139Z,0
2017-09-05T02:49:16.280Z,0
2017-09-05T02:49:42.406Z,0
2017-09-05T02:50:08.541Z,0
2017-09-05T02:50:34.671Z,0
2017-09-05T02:51:00.803Z,0
2017-09-05T02:51:26.931Z,0
2017-09-05T02:51:53.069Z,0
2017-09-05T02:52:19.204Z,0
2017-09-05T02:52:45.338Z,0
2017-09-05T02:53:11.466Z,0
2017-09-05T02:53:37.599Z,0
2017-09-05T02:54:03.735Z,0
2017-09-05T02:54:29.889Z,0
2017-09-05T02:54:56.043Z,0
2017-09-05T02:55:22.173Z,0
2017-09-05T02:55:48.309Z,0
2017-09-05T02:56:14.433Z,0
2017-09-05T02:56:40.589Z,0
2017-09-05T02:57:06.717Z,0
2017-09-05T02:57:32.846Z,0
2017-09-05T02:57:58.982Z,0
2017-09-05T02:58:25.118Z,0
2017-09-05T02:58:51.247Z,0
2017-09-05T02:59:17.383Z,0
2017-09-05T02:59:43.509Z,0
2017-09-05T03:00:09.646Z,0
2017-09-05T03:00:35.774Z,0
2017-09-05T03:01:01.906Z,0
2017-09-05T03:01:28.040Z,0
2017-09-05T03:01:54.173Z,0
2017-09-05T03:02:20.309Z,0
2017-09-05T03:02:46.438Z,0
2017-09-05T03:03:12.577Z,0
2017-09-05T03:03:38.711Z,0
2017-09-05T03:04:04.842Z,0
2017-09-05T03:04:30.972Z,0
2017-09-05T03:04:57.145Z,0
2017-09-05T03:05:23.244Z,0
2017-09-05T03:05:49.373Z,0
2017-09-05T03:06:15.508Z,0
2017-09-05T03:06:41.635Z,0
2017-09-05T03:07:07.773Z,0
2017-09-05T03:07:33.900Z,0
2017-09-05T03:08:00.030Z,0
2017-09-05T03:08:26.172Z,0
2017-09-05T03:08:52.307Z,0
2017-09-05T03:09:18.430Z,0
2017-09-05T03:09:44.559Z,0
2017-09-05T03:10:10.692Z,0
2017-09-05T03:10:36.818Z,0
2017-09-05T03:11:02.955Z,0
2017-09-05T03:11:29.120Z,0
2017-09-05T03:11:55.253Z,0
2017-09-05T03:12:21.393Z,0
2017-09-05T03:12:47.511Z,0
2017-09-05T03:13:13.677Z,0
2017-09-05T03:13:39.825Z,0
2017-09-05T03:14:05.958Z,0
2017-09-05T03:14:32.113Z,0
2017-09-05T03:14:58.248Z,0
2017-09-05T03:15:24.380Z,0
2017-09-05T03:15:50.509Z,0
2017-09-05T03:16:16.643Z,0
2017-09-05T03:16:42.791Z,0
2017-09-05T03:17:08.932Z,0
2017-09-05T03:17:35.062Z,0
2017-09-05T03:18:01.202Z,0
2017-09-05T03:18:27.337Z,0
2017-09-05T03:18:53.466Z,0
2017-09-05T03:19:19.592Z,0
2017-09-05T03:19:45.724Z,0
2017-09-05T03:20:11.853Z,0
2017-09-05T03:20:37.997Z,0
2017-09-05T03:21:04.158Z,0
2017-09-05T03:21:30.306Z,0
2017-09-05T03:21:56.437Z,0
2017-09-05T03:22:22.576Z,0
2017-09-05T03:22:48.703Z,0
2017-09-05T03:23:14.844Z,0
2017-09-05T03:23:40.971Z,0
2017-09-05T03:24:07.107Z,0
2017-09-05T03:24:33.235Z,0
2017-09-05T03:24:59.363Z,0
2017-09-05T03:25:25.502Z,0
2017-09-05T03:25:51.631Z,0
2017-09-05T03:26:17.769Z,0
2017-09-05T03:26:43.902Z,0
2017-09-05T03:27:10.031Z,0
2017-09-05T03:27:36.167Z,0
2017-09-05T03:28:02.299Z,0
2017-09-05T03:28:28.428Z,0
2017-09-05T03:28:54.562Z,0
2017-09-05T03:29:20.691Z,0
2017-09-05T03:29:46.819Z,0
2017-09-05T03:30:12.954Z,0
2017-09-05T03:30:39.089Z,0
2017-09-05T03:31:05.218Z,0
2017-09-05T03:31:31.348Z,0
2017-09-05T03:31:57.503Z,0
2017-09-05T03:32:23.635Z,0
2017-09-05T03:32:49.763Z,0
2017-09-05T03:33:15.893Z,0
2017-09-05T03:33:42.028Z,0
2017-09-05T03:34:08.154Z,0
2017-09-05T03:34:34.295Z,0
2017-09-05T03:35:00.425Z,0
2017-09-05T03:35:26.562Z,0
2017-09-05T03:35:52.695Z,0
2017-09-05T03:36:18.825Z,0
2017-09-05T03:36:44.964Z,0
2017-09-05T03:37:11.094Z,0
2017-09-05T03:37:37.223Z,0
2017-09-05T03:38:03.360Z,0
2017-09-05T03:38:29.490Z,0
2017-09-05T03:38:55.627Z,0
2017-09-05T03:39:21.764Z,0
2017-09-05T03:39:47.916Z,0
2017-09-05T03:40:14.051Z,0
2017-09-05T03:40:40.178Z,0
2017-09-05T03:41:06.310Z,0
2017-09-05T03:41:32.449Z,0
2017-09-05T03:41:58.582Z,0
2017-09-05T03:42:24.709Z,0
2017-09-05T03:42:50.866Z,0
2017-09-05T03:43:17.000Z,0
2017-09-05T03:43:43.134Z,0
2017-09-05T03:44:09.264Z,0
2017-09-05T03:44:35.400Z,0
2017-09-05T03:45:01.526Z,0
2017-09-05T03:45:27.666Z,0
2017-09-05T03:45:53.803Z,0
2017-09-05T03:46:19.932Z,0
2017-09-05T03:46:46.071Z,0
2017-09-05T03:47:12.204Z,0
2017-09-05T03:47:38.336Z,0
2017-09-05T03:48:04.473Z,0
2017-09-05T03:48:30.595Z,0
2017-09-05T03:48:56.733Z,0
2017-09-05T03:49:22.863Z,0
2017-09-05T03:49:48.991Z,0
2017-09-05T03:50:15.128Z,0
2017-09-05T03:50:41.281Z,0
2017-09-05T03:51:07.415Z,0
2017-09-05T03:51:33.550Z,0
2017-09-05T03:51:59.677Z,0
2017-09-05T03:52:25.807Z,0
2017-09-05T03:52:51.945Z,0
2017-09-05T03:53:18.080Z,0
2017-09-05T03:53:44.214Z,0
2017-09-05T03:54:10.344Z,0
2017-09-05T03:54:36.473Z,0
2017-09-05T03:55:02.606Z,0
2017-09-05T03:55:28.734Z,0
2017-09-05T03:55:54.872Z,0
2017-09-05T03:56:20.998Z,0
2017-09-05T03:56:47.126Z,0
2017-09-05T03:57:13.265Z,0
2017-09-05T03:57:39.413Z,0
2017-09-05T03:58:05.548Z,0
2017-09-05T03:58:31.678Z,0
2017-09-05T03:58:57.814Z,0
2017-09-05T03:59:23.950Z,0
2017-09-05T03:59:50.079Z,0
2017-09-05T04:00:16.220Z,0
2017-09-05T04:00:42.345Z,0
2017-09-05T04:01:08.482Z,0
2017-09-05T04:01:34.610Z,0
2017-09-05T04:02:00.739Z,0
2017-09-05T04:02:26.873Z,0
2017-09-05T04:02:53.006Z,0
2017-09-05T04:03:19.134Z,0
2017-09-05T04:03:45.263Z,0
2017-09-05T04:04:11.393Z,0
2017-09-05T04:04:37.528Z,0
2017-09-05T04:05:03.657Z,0
2017-09-05T04:05:29.796Z,0
2017-09-05T04:05:55.924Z,0
2017-09-05T04:06:22.060Z,0
2017-09-05T04:06:48.198Z,0
2017-09-05T04:07:14.334Z,0
2017-09-05T04:07:40.488Z,0
2017-09-05T04:08:06.624Z,0
2017-09-05T04:08:32.755Z,0
2017-09-05T04:08:58.892Z,0
2017-09-05T04:09:25.018Z,0
2017-09-05T04:09:51.145Z,0
2017-09-05T04:10:17.276Z,0
2017-09-05T04:10:43.408Z,0
2017-09-05T04:11:09.547Z,0
2017-09-05T04:11:35.677Z,0
2017-09-05T04:12:01.810Z,0
2017-09-05T04:12:27.939Z,0
2017-09-05T04:12:54.080Z,0
2017-09-05T04:13:20.204Z,0
2017-09-05T04:13:46.346Z,0
2017-09-05T04:14:12.475Z,0
2017-09-05T04:14:38.608Z,0
2017-09-05T04:15:04.738Z,0
2017-09-05T04:15:30.871Z,0
2017-09-05T04:15:57.005Z,0
2017-09-05T04:16:23.135Z,0
2017-09-05T04:16:49.267Z,0
2017-09-05T04:17:15.402Z,0
2017-09-05T04:17:41.527Z,0
2017-09-05T04:18:07.664Z,0
2017-09-05T04:18:33.795Z,0
2017-09-05T04:18:59.928Z,0
2017-09-05T04:19:26.057Z,0
2017-09-05T04:19:52.191Z,0
2017-09-05T04:20:18.329Z,0
2017-09-05T04:20:44.454Z,0
2017-09-05T04:21:10.592Z,0
2017-09-05T04:21:36.721Z,0
2017-09-05T04:22:02.873Z,0
2017-09-05T04:22:29.011Z,0
2017-09-05T04:22:55.148Z,0
2017-09-05T04:23:21.272Z,0
2017-09-05T04:23:47.400Z,0
2017-09-05T04:24:13.539Z,0
2017-09-05T04:24:39.666Z,0
2017-09-05T04:25:05.800Z,0
2017-09-05T04:25:31.932Z,0
2017-09-05T04:25:58.061Z,0
2017-09-05T04:26:24.198Z,0
2017-09-05T04:26:50.330Z,0
2017-09-05T04:27:16.464Z,0
2017-09-05T04:27:42.600Z,0
2017-09-05T04:28:08.726Z,0
2017-09-05T04:28:34.861Z,0
2017-09-05T04:29:00.999Z,0
2017-09-05T04:29:27.123Z,0
2017-09-05T04:29:53.253Z,0
2017-09-05T04:30:19.391Z,0
2017-09-05T04:30:45.521Z,0
2017-09-05T04:31:11.684Z,0
2017-09-05T04:31:37.812Z,0
2017-09-05T04:32:03.948Z,0
2017-09-05T04:32:30.076Z,0
2017-09-05T04:32:56.203Z,0
2017-09-05T04:33:22.332Z,0
2017-09-05T04:33:48.470Z,0
2017-09-05T04:34:14.604Z,0
2017-09-05T04:34:40.734Z,0
2017-09-05T04:35:06.860Z,0
2017-09-05T04:35:32.993Z,0
2017-09-05T04:35:59.128Z,0
2017-09-05T04:36:25.260Z,0
2017-09-05T04:36:51.399Z,0
2017-09-05T04:37:17.528Z,0
2017-09-05T04:37:43.659Z,0
2017-09-05T04:38:09.797Z,0
2017-09-05T04:38:35.920Z,0
2017-09-05T04:39:02.106Z,0
2017-09-05T04:39:28.242Z,0
2017-09-05T04:39:54.368Z,0
2017-09-05T04:40:20.506Z,0
2017-09-05T04:40:46.634Z,0
2017-09-05T04:41:12.767Z,0
2017-09-05T04:41:38.904Z,0
2017-09-05T04:42:05.032Z,0
2017-09-05T04:42:31.169Z,0
2017-09-05T04:42:57.302Z,0
2017-09-05T04:43:23.437Z,0
2017-09-05T04:43:49.573Z,0
2017-09-05T04:44:15.721Z,0
2017-09-05T04:44:41.884Z,0
2017-09-05T04:45:08.011Z,0
2017-09-05T04:45:34.149Z,0
2017-09-05T04:46:00.275Z,0
2017-09-05T04:46:26.439Z,0
2017-09-05T04:46:52.568Z,0
2017-09-05T04:47:18.726Z,0
2017-09-05T04:47:44.837Z,0
2017-09-05T04:48:10.972Z,0
2017-09-05T04:48:37.098Z,0
2017-09-05T04:49:03.228Z,0
2017-09-05T04:49:29.358Z,0
2017-09-05T04:49:55.512Z,5
2017-09-05T04:50:21.648Z,5
2017-09-05T04:50:47.774Z,5
2017-09-05T04:51:13.909Z,5
2017-09-05T04:51:40.037Z,5
2017-09-05T04:52:06.169Z,5
2017-09-05T04:52:32.306Z,5
2017-09-05T04:52:58.437Z,5
2017-09-05T04:53:24.567Z,5
2017-09-05T04:53:50.703Z,5
2017-09-05T04:54:16.837Z,5
2017-09-05T04:54:42.970Z,5
2017-09-05T04:55:09.105Z,5
2017-09-05T04:55:35.240Z,5
2017-09-05T04:56:01.375Z,5
2017-09-05T04:56:27.512Z,5
2017-09-05T04:56:53.638Z,5
2017-09-05T04:57:19.780Z,5
2017-09-05T04:57:45.911Z,5
2017-09-05T04:58:12.042Z,10
2017-09-05T04:58:38.176Z,10
2017-09-05T04:59:04.305Z,10
2017-09-05T04:59:30.434Z,10
2017-09-05T04:59:56.568Z,10
2017-09-05T05:00:22.707Z,10
2017-09-05T05:00:48.833Z,10
2017-09-05T05:01:14.972Z,10
2017-09-05T05:01:41.099Z,10
2017-09-05T05:02:07.239Z,10
2017-09-05T05:02:33.364Z,15
2017-09-05T05:02:59.519Z,15
2017-09-05T05:03:25.656Z,15
2017-09-05T05:03:51.790Z,15
2017-09-05T05:04:17.926Z,15
2017-09-05T05:04:44.054Z,15
2017-09-05T05:05:10.190Z,15
2017-09-05T05:05:36.340Z,15
2017-09-05T05:06:02.481Z,15
2017-09-05T05:06:28.624Z,20
2017-09-05T05:06:54.745Z,20
2017-09-05T05:07:20.879Z,20
2017-09-05T05:07:47.006Z,20
2017-09-05T05:08:13.134Z,20
2017-09-05T05:08:39.273Z,20
2017-09-05T05:09:05.400Z,20
2017-09-05T05:09:31.530Z,20
2017-09-05T05:09:57.666Z,20
2017-09-05T05:10:23.799Z,20
2017-09-05T05:10:49.926Z,20
2017-09-05T05:11:16.056Z,20
2017-09-05T05:11:42.224Z,20
2017-09-05T05:12:08.351Z,20
2017-09-05T05:12:34.482Z,20
2017-09-05T05:13:00.614Z,20
2017-09-05T05:13:26.785Z,20
2017-09-05T05:13:52.905Z,20
2017-09-05T05:14:19.038Z,20
2017-09-05T05:14:45.175Z,20
2017-09-05T05:15:11.301Z,20
2017-09-05T05:15:37.434Z,20
2017-09-05T05:16:03.565Z,20
2017-09-05T05:16:29.696Z,20
2017-09-05T05:16:55.834Z,20
2017-09-05T05:17:21.959Z,20
2017-09-05T05:17:48.089Z,20
2017-09-05T05:18:14.227Z,20
2017-09-05T05:18:40.364Z,25
2017-09-05T05:19:06.497Z,25
2017-09-05T05:19:32.627Z,25
2017-09-05T05:19:58.782Z,25
2017-09-05T05:20:24.911Z,25
2017-09-05T05:20:51.052Z,30
2017-09-05T05:21:17.184Z,30
2017-09-05T05:21:43.310Z,30
2017-09-05T05:22:09.447Z,30
2017-09-05T05:22:35.580Z,30
2017-09-05T05:23:01.711Z,30
2017-09-05T05:23:27.843Z,30
2017-09-05T05:23:53.982Z,35
2017-09-05T05:24:20.113Z,35
2017-09-05T05:24:46.246Z,35
2017-09-05T05:25:12.373Z,35
2017-09-05T05:25:38.511Z,40
2017-09-05T05:26:04.637Z,40
2017-09-05T05:26:30.795Z,40
2017-09-05T05:26:56.924Z,45
2017-09-05T05:27:23.056Z,45
2017-09-05T05:27:49.189Z,45
2017-09-05T05:28:15.319Z,50
2017-09-05T05:28:41.454Z,50
2017-09-05T05:29:07.582Z,50
2017-09-05T05:29:33.721Z,50
2017-09-05T05:29:59.848Z,50
2017-09-05T05:30:26.014Z,50
2017-09-05T05:30:52.148Z,55
2017-09-05T05:31:18.275Z,55
2017-09-05T05:31:44.410Z,55
2017-09-05T05:32:10.542Z,60
2017-09-05T05:32:36.679Z,60
2017-09-05T05:33:02.820Z,60
2017-09-05T05:33:28.953Z,60
2017-09-05T05:33:55.109Z,60
2017-09-05T05:34:21.226Z,60
2017-09-05T05:34:47.352Z,65
2017-09-05T05:35:13.479Z,65
2017-09-05T05:35:39.610Z,70
2017-09-05T05:36:05.741Z,65
2017-09-05T05:36:31.877Z,70
2017-09-05T05:36:58.008Z,70
2017-09-05T05:37:24.147Z,70
2017-09-05T05:37:50.280Z,70
2017-09-05T05:38:16.412Z,70
2017-09-05T05:38:42.549Z,70
2017-09-05T05:39:08.701Z,70
2017-09-05T05:39:34.838Z,70
2017-09-05T05:40:00.960Z,75
2017-09-05T05:40:27.094Z,75
2017-09-05T05:40:53.229Z,75
2017-09-05T05:41:19.359Z,75
2017-09-05T05:41:45.497Z,80
2017-09-05T05:42:11.633Z,80
2017-09-05T05:42:37.755Z,80
2017-09-05T05:43:03.897Z,80
2017-09-05T05:43:30.021Z,85
2017-09-05T05:43:56.158Z,85
2017-09-05T05:44:22.284Z,90
2017-09-05T05:44:48.415Z,90
2017-09-05T05:45:14.548Z,95
2017-09-05T05:45:40.682Z,95
2017-09-05T05:46:06.817Z,95
2017-09-05T05:46:32.959Z,95
2017-09-05T05:46:59.087Z,100
2017-09-05T05:47:25.298Z,100
2017-09-05T05:47:51.428Z,100
2017-09-05T05:48:17.564Z,100
2017-09-05T05:48:43.699Z,105
2017-09-05T05:49:09.832Z,105
2017-09-05T05:49:35.973Z,115
2017-09-05T05:50:02.099Z,110
2017-09-05T05:50:28.240Z,115
2017-09-05T05:50:54.375Z,115
2017-09-05T05:51:20.507Z,120
2017-09-05T05:51:46.639Z,125
2017-09-05T05:52:12.810Z,125
2017-09-05T05:52:38.993Z,130
2017-09-05T05:53:05.128Z,135
2017-09-05T05:53:31.263Z,135
2017-09-05T05:53:57.394Z,140
2017-09-05T05:54:23.527Z,140
2017-09-05T05:54:49.662Z,140
2017-09-05T05:55:15.797Z,145
2017-09-05T05:55:41.928Z,145
2017-09-05T05:56:08.066Z,150
2017-09-05T05:56:34.189Z,155
2017-09-05T05:57:00.330Z,155
2017-09-05T05:57:26.463Z,160
2017-09-05T05:57:52.603Z,160
2017-09-05T05:58:18.739Z,165
2017-09-05T05:58:44.875Z,165
2017-09-05T05:59:11.008Z,165
2017-09-05T05:59:37.127Z,165
2017-09-05T06:00:03.267Z,160
2017-09-05T06:00:29.393Z,155
2017-09-05T06:00:55.535Z,155
2017-09-05T06:01:21.671Z,150
2017-09-05T06:01:47.799Z,150
2017-09-05T06:02:13.936Z,155
2017-09-05T06:02:40.072Z,155
2017-09-05T06:03:06.206Z,160
2017-09-05T06:03:32.337Z,170
2017-09-05T06:03:58.476Z,175
2017-09-05T06:04:24.610Z,185
2017-09-05T06:04:50.735Z,195
2017-09-05T06:05:16.871Z,200
2017-09-05T06:05:43.029Z,205
2017-09-05T06:06:09.188Z,200
2017-09-05T06:06:35.316Z,200
2017-09-05T06:07:01.448Z,200
2017-09-05T06:07:27.588Z,200
2017-09-05T06:07:53.715Z,190
2017-09-05T06:08:19.848Z,180
2017-09-05T06:08:45.985Z,170
2017-09-05T06:09:12.117Z,160
2017-09-05T06:09:38.252Z,145
2017-09-05T06:10:04.378Z,140
2017-09-05T06:10:30.514Z,130
2017-09-05T06:10:56.652Z,120
2017-09-05T06:11:22.785Z,115
2017-09-05T06:11:48.914Z,105
2017-09-05T06:12:15.052Z,100
2017-09-05T06:12:41.179Z,95
2017-09-05T06:13:07.318Z,90
2017-09-05T06:13:33.449Z,90
2017-09-05T06:13:59.590Z,90
2017-09-05T06:14:25.724Z,90
2017-09-05T06:14:51.857Z,90
2017-09-05T06:15:17.990Z,90
2017-09-05T06:15:44.128Z,90
2017-09-05T06:16:10.263Z,95
2017-09-05T06:16:36.395Z,100
2017-09-05T06:17:02.534Z,110
2017-09-05T06:17:28.663Z,110
2017-09-05T06:17:54.795Z,110
2017-09-05T06:18:20.932Z,110
2017-09-05T06:18:47.070Z,110
2017-09-05T06:19:13.201Z,110
2017-09-05T06:19:39.365Z,110
2017-09-05T06:20:05.495Z,115
2017-09-05T06:20:31.626Z,115
2017-09-05T06:20:57.763Z,120
2017-09-05T06:21:23.894Z,120
2017-09-05T06:21:50.031Z,120
2017-09-05T06:22:16.167Z,125